Abadan, Iran
Current Conditions -  °F | °C
As of 12:00 AM on Saturday 25 Oct 2014 (Local Time) from OIAA Reporting Station
Clear Clear  
Wind Chill: 70°   Ceiling: Unl
Heat Index: 70°   Visibility: 6mi
Dew Point: 52°   Wind: 5mph
Humidity: 53%   Direction: 300°WNW
Pressure: 29.91"   Gusts: NA
Location:  30.33°N, 48.28°E
Report Text: OIAA 242000Z 30004KT CAVOK 21/11 Q1013
Loading
Personal Weather Stations






























Interactive Weather Map
Tropical Storm Tracking
New forecast layout! Learn more

10-Day Weather Forecast

Advertisements
Track Severe Weather on mobile